sensor_id;sensor_type;location;lat;lon;timestamp;temperature;humidity
14585;DHT22;7379;51.506;11.876;2023-07-31T00:00:08;20.50;62.20
14585;DHT22;7379;51.506;11.876;2023-07-31T00:02:35;20.50;62.20
14585;DHT22;7379;51.506;11.876;2023-07-31T00:05:02;20.50;62.10
14585;DHT22;7379;51.506;11.876;2023-07-31T00:07:29;20.50;62.10
14585;DHT22;7379;51.506;11.876;2023-07-31T00:09:56;20.40;62.00
14585;DHT22;7379;51.506;11.876;2023-07-31T00:12:24;20.50;62.10
14585;DHT22;7379;51.506;11.876;2023-07-31T00:14:51;20.40;62.00
14585;DHT22;7379;51.506;11.876;2023-07-31T00:17:18;20.50;62.10
14585;DHT22;7379;51.506;11.876;2023-07-31T00:19:45;20.40;62.10
14585;DHT22;7379;51.506;11.876;2023-07-31T00:22:14;20.40;62.10
14585;DHT22;7379;51.506;11.876;2023-07-31T00:24:41;20.40;62.00
14585;DHT22;7379;51.506;11.876;2023-07-31T00:27:07;20.40;62.00
14585;DHT22;7379;51.506;11.876;2023-07-31T00:29:35;20.40;62.10
14585;DHT22;7379;51.506;11.876;2023-07-31T00:32:03;20.40;62.10
14585;DHT22;7379;51.506;11.876;2023-07-31T00:34:29;20.40;62.00
14585;DHT22;7379;51.506;11.876;2023-07-31T00:36:56;20.40;62.10
14585;DHT22;7379;51.506;11.876;2023-07-31T00:39:23;20.40;62.80
14585;DHT22;7379;51.506;11.876;2023-07-31T00:41:50;20.40;62.10
14585;DHT22;7379;51.506;11.876;2023-07-31T00:44:16;20.40;62.00
14585;DHT22;7379;51.506;11.876;2023-07-31T00:46:44;20.40;62.20
14585;DHT22;7379;51.506;11.876;2023-07-31T00:49:12;20.30;62.00
14585;DHT22;7379;51.506;11.876;2023-07-31T00:51:39;20.30;62.00
14585;DHT22;7379;51.506;11.876;2023-07-31T00:54:06;20.30;62.00
14585;DHT22;7379;51.506;11.876;2023-07-31T00:56:33;20.30;62.00
14585;DHT22;7379;51.506;11.876;2023-07-31T00:59:00;20.30;61.90
14585;DHT22;7379;51.506;11.876;2023-07-31T01:01:27;20.30;62.70
14585;DHT22;7379;51.506;11.876;2023-07-31T01:03:56;20.30;61.90
14585;DHT22;7379;51.506;11.876;2023-07-31T01:06:30;20.30;61.90
14585;DHT22;7379;51.506;11.876;2023-07-31T01:09:03;20.30;61.90
14585;DHT22;7379;51.506;11.876;2023-07-31T01:11:32;20.30;61.90
14585;DHT22;7379;51.506;11.876;2023-07-31T01:13:59;20.30;61.80
14585;DHT22;7379;51.506;11.876;2023-07-31T01:16:26;20.30;61.80
14585;DHT22;7379;51.506;11.876;2023-07-31T01:18:53;20.30;61.90
14585;DHT22;7379;51.506;11.876;2023-07-31T01:21:36;20.30;61.80
14585;DHT22;7379;51.506;11.876;2023-07-31T01:24:21;20.20;61.60
14585;DHT22;7379;51.506;11.876;2023-07-31T01:26:55;20.20;61.50
14585;DHT22;7379;51.506;11.876;2023-07-31T01:29:27;20.20;61.50
14585;DHT22;7379;51.506;11.876;2023-07-31T01:31:57;20.20;61.50
14585;DHT22;7379;51.506;11.876;2023-07-31T01:34:26;20.20;61.50
14585;DHT22;7379;51.506;11.876;2023-07-31T01:36:54;20.20;61.50
14585;DHT22;7379;51.506;11.876;2023-07-31T01:39:21;20.20;61.50
14585;DHT22;7379;51.506;11.876;2023-07-31T01:41:48;20.20;61.60
14585;DHT22;7379;51.506;11.876;2023-07-31T01:44:16;20.20;61.60
14585;DHT22;7379;51.506;11.876;2023-07-31T01:46:43;20.10;61.50
14585;DHT22;7379;51.506;11.876;2023-07-31T01:49:10;20.20;61.70
14585;DHT22;7379;51.506;11.876;2023-07-31T01:51:36;20.10;61.50
14585;DHT22;7379;51.506;11.876;2023-07-31T01:54:03;20.20;61.70
14585;DHT22;7379;51.506;11.876;2023-07-31T01:56:30;20.20;61.60
14585;DHT22;7379;51.506;11.876;2023-07-31T01:58:57;20.20;61.80
14585;DHT22;7379;51.506;11.876;2023-07-31T02:01:25;20.20;61.80
14585;DHT22;7379;51.506;11.876;2023-07-31T02:03:52;20.10;61.70
14585;DHT22;7379;51.506;11.876;2023-07-31T02:06:19;20.20;61.80
14585;DHT22;7379;51.506;11.876;2023-07-31T02:08:46;20.10;62.40
14585;DHT22;7379;51.506;11.876;2023-07-31T02:11:12;20.20;61.80
14585;DHT22;7379;51.506;11.876;2023-07-31T02:13:39;20.10;61.60
14585;DHT22;7379;51.506;11.876;2023-07-31T02:16:06;20.10;61.70
14585;DHT22;7379;51.506;11.876;2023-07-31T02:18:34;20.10;61.80
14585;DHT22;7379;51.506;11.876;2023-07-31T02:21:01;20.10;61.90
14585;DHT22;7379;51.506;11.876;2023-07-31T02:23:27;20.10;61.90
14585;DHT22;7379;51.506;11.876;2023-07-31T02:25:54;20.10;62.00
14585;DHT22;7379;51.506;11.876;2023-07-31T02:28:21;20.10;62.10
14585;DHT22;7379;51.506;11.876;2023-07-31T02:30:48;20.00;62.00
14585;DHT22;7379;51.506;11.876;2023-07-31T02:33:16;20.00;62.10
14585;DHT22;7379;51.506;11.876;2023-07-31T02:35:44;20.00;62.10
14585;DHT22;7379;51.506;11.876;2023-07-31T02:38:11;20.00;62.20
14585;DHT22;7379;51.506;11.876;2023-07-31T02:40:38;20.00;62.20
14585;DHT22;7379;51.506;11.876;2023-07-31T02:43:05;20.00;62.30
14585;DHT22;7379;51.506;11.876;2023-07-31T02:45:32;20.00;62.30
14585;DHT22;7379;51.506;11.876;2023-07-31T02:47:59;20.00;62.40
14585;DHT22;7379;51.506;11.876;2023-07-31T02:50:25;20.00;62.40
14585;DHT22;7379;51.506;11.876;2023-07-31T02:52:54;20.00;62.50
14585;DHT22;7379;51.506;11.876;2023-07-31T02:55:21;20.00;62.50
14585;DHT22;7379;51.506;11.876;2023-07-31T02:57:47;20.00;62.60
14585;DHT22;7379;51.506;11.876;2023-07-31T03:00:20;20.00;62.60
14585;DHT22;7379;51.506;11.876;2023-07-31T03:02:47;20.00;62.60
14585;DHT22;7379;51.506;11.876;2023-07-31T03:05:14;19.90;62.60
14585;DHT22;7379;51.506;11.876;2023-07-31T03:07:40;19.90;62.60
14585;DHT22;7379;51.506;11.876;2023-07-31T03:10:09;19.90;62.70
14585;DHT22;7379;51.506;11.876;2023-07-31T03:12:36;19.90;62.70
14585;DHT22;7379;51.506;11.876;2023-07-31T03:15:03;19.90;62.80
14585;DHT22;7379;51.506;11.876;2023-07-31T03:17:30;19.90;62.80
14585;DHT22;7379;51.506;11.876;2023-07-31T03:19:56;19.90;62.80
14585;DHT22;7379;51.506;11.876;2023-07-31T03:22:23;19.90;62.90
14585;DHT22;7379;51.506;11.876;2023-07-31T03:24:50;19.90;62.90
14585;DHT22;7379;51.506;11.876;2023-07-31T03:27:18;19.90;62.90
14585;DHT22;7379;51.506;11.876;2023-07-31T03:29:45;19.90;62.90
14585;DHT22;7379;51.506;11.876;2023-07-31T03:32:11;19.90;63.00
14585;DHT22;7379;51.506;11.876;2023-07-31T03:34:38;19.90;63.00
14585;DHT22;7379;51.506;11.876;2023-07-31T03:37:05;19.90;63.00
14585;DHT22;7379;51.506;11.876;2023-07-31T03:39:34;19.80;62.90
14585;DHT22;7379;51.506;11.876;2023-07-31T03:42:01;19.80;63.00
14585;DHT22;7379;51.506;11.876;2023-07-31T03:44:29;19.80;63.00
14585;DHT22;7379;51.506;11.876;2023-07-31T03:46:56;19.80;63.00
14585;DHT22;7379;51.506;11.876;2023-07-31T03:49:23;19.80;63.10
14585;DHT22;7379;51.506;11.876;2023-07-31T03:51:50;19.80;63.00
14585;DHT22;7379;51.506;11.876;2023-07-31T03:54:16;19.80;63.00
14585;DHT22;7379;51.506;11.876;2023-07-31T03:56:43;19.80;63.10
14585;DHT22;7379;51.506;11.876;2023-07-31T03:59:10;19.80;63.10
14585;DHT22;7379;51.506;11.876;2023-07-31T04:01:38;19.80;63.10
14585;DHT22;7379;51.506;11.876;2023-07-31T04:04:04;19.80;63.10
14585;DHT22;7379;51.506;11.876;2023-07-31T04:06:31;19.80;63.10
14585;DHT22;7379;51.506;11.876;2023-07-31T04:08:58;19.80;63.10
14585;DHT22;7379;51.506;11.876;2023-07-31T04:11:25;19.80;63.20
14585;DHT22;7379;51.506;11.876;2023-07-31T04:13:51;19.80;63.20
14585;DHT22;7379;51.506;11.876;2023-07-31T04:16:18;19.80;63.20
14585;DHT22;7379;51.506;11.876;2023-07-31T04:18:46;19.80;63.30
14585;DHT22;7379;51.506;11.876;2023-07-31T04:21:13;19.70;63.20
14585;DHT22;7379;51.506;11.876;2023-07-31T04:23:39;19.70;63.30
14585;DHT22;7379;51.506;11.876;2023-07-31T04:26:06;19.70;63.30
14585;DHT22;7379;51.506;11.876;2023-07-31T04:28:33;19.70;63.30
14585;DHT22;7379;51.506;11.876;2023-07-31T04:30:59;19.70;63.30
14585;DHT22;7379;51.506;11.876;2023-07-31T04:33:26;19.70;63.40
14585;DHT22;7379;51.506;11.876;2023-07-31T04:35:55;19.70;63.50
14585;DHT22;7379;51.506;11.876;2023-07-31T04:38:23;19.70;63.50
14585;DHT22;7379;51.506;11.876;2023-07-31T04:40:50;19.70;63.50
14585;DHT22;7379;51.506;11.876;2023-07-31T04:43:17;19.70;63.50
14585;DHT22;7379;51.506;11.876;2023-07-31T04:45:45;19.70;63.60
14585;DHT22;7379;51.506;11.876;2023-07-31T04:48:13;19.70;63.70
14585;DHT22;7379;51.506;11.876;2023-07-31T04:50:39;19.70;63.70
14585;DHT22;7379;51.506;11.876;2023-07-31T04:53:07;19.60;63.70
14585;DHT22;7379;51.506;11.876;2023-07-31T04:55:34;19.70;63.90
14585;DHT22;7379;51.506;11.876;2023-07-31T04:58:01;19.70;63.90
14585;DHT22;7379;51.506;11.876;2023-07-31T05:00:28;19.60;63.90
14585;DHT22;7379;51.506;11.876;2023-07-31T05:02:54;19.60;63.90
14585;DHT22;7379;51.506;11.876;2023-07-31T05:05:21;19.60;64.00
14585;DHT22;7379;51.506;11.876;2023-07-31T05:07:48;19.60;64.10
14585;DHT22;7379;51.506;11.876;2023-07-31T05:10:16;19.60;64.20
14585;DHT22;7379;51.506;11.876;2023-07-31T05:12:43;19.60;64.10
14585;DHT22;7379;51.506;11.876;2023-07-31T05:15:09;19.60;64.20
14585;DHT22;7379;51.506;11.876;2023-07-31T05:17:36;19.60;64.30
14585;DHT22;7379;51.506;11.876;2023-07-31T05:20:03;19.60;64.60
14585;DHT22;7379;51.506;11.876;2023-07-31T05:22:30;19.60;64.60
14585;DHT22;7379;51.506;11.876;2023-07-31T05:24:57;19.60;64.70
14585;DHT22;7379;51.506;11.876;2023-07-31T05:27:25;19.60;64.60
14585;DHT22;7379;51.506;11.876;2023-07-31T05:29:52;19.60;64.70
14585;DHT22;7379;51.506;11.876;2023-07-31T05:32:19;19.60;64.80
14585;DHT22;7379;51.506;11.876;2023-07-31T05:34:45;19.50;64.70
14585;DHT22;7379;51.506;11.876;2023-07-31T05:37:12;19.50;64.90
14585;DHT22;7379;51.506;11.876;2023-07-31T05:39:39;19.50;64.90
14585;DHT22;7379;51.506;11.876;2023-07-31T05:42:06;19.50;64.90
14585;DHT22;7379;51.506;11.876;2023-07-31T05:44:34;19.50;65.00
14585;DHT22;7379;51.506;11.876;2023-07-31T05:47:01;19.50;65.20
14585;DHT22;7379;51.506;11.876;2023-07-31T05:49:27;19.50;65.10
14585;DHT22;7379;51.506;11.876;2023-07-31T05:51:54;19.50;65.20
14585;DHT22;7379;51.506;11.876;2023-07-31T05:54:21;19.50;65.20
14585;DHT22;7379;51.506;11.876;2023-07-31T05:56:47;19.50;65.30
14585;DHT22;7379;51.506;11.876;2023-07-31T05:59:15;19.50;65.30
14585;DHT22;7379;51.506;11.876;2023-07-31T06:01:43;19.50;65.30
14585;DHT22;7379;51.506;11.876;2023-07-31T06:04:10;19.50;65.40
14585;DHT22;7379;51.506;11.876;2023-07-31T06:06:37;19.50;65.40
14585;DHT22;7379;51.506;11.876;2023-07-31T06:09:04;19.50;65.40
14585;DHT22;7379;51.506;11.876;2023-07-31T06:11:30;19.50;65.50
14585;DHT22;7379;51.506;11.876;2023-07-31T06:13:57;19.50;65.60
14585;DHT22;7379;51.506;11.876;2023-07-31T06:16:24;19.50;65.50
14585;DHT22;7379;51.506;11.876;2023-07-31T06:18:53;19.50;65.60
14585;DHT22;7379;51.506;11.876;2023-07-31T06:21:20;19.50;65.60
14585;DHT22;7379;51.506;11.876;2023-07-31T06:23:47;19.50;65.70
14585;DHT22;7379;51.506;11.876;2023-07-31T06:26:14;19.50;65.70
14585;DHT22;7379;51.506;11.876;2023-07-31T06:28:41;19.50;65.80
14585;DHT22;7379;51.506;11.876;2023-07-31T06:31:08;19.40;65.70
14585;DHT22;7379;51.506;11.876;2023-07-31T06:33:34;19.40;65.70
14585;DHT22;7379;51.506;11.876;2023-07-31T06:36:02;19.40;65.80
14585;DHT22;7379;51.506;11.876;2023-07-31T06:38:29;19.40;65.80
14585;DHT22;7379;51.506;11.876;2023-07-31T06:40:56;19.40;65.80
14585;DHT22;7379;51.506;11.876;2023-07-31T06:43:22;19.40;65.80
14585;DHT22;7379;51.506;11.876;2023-07-31T06:45:49;19.40;65.90
14585;DHT22;7379;51.506;11.876;2023-07-31T06:48:16;19.40;65.90
14585;DHT22;7379;51.506;11.876;2023-07-31T06:50:43;19.40;65.90
14585;DHT22;7379;51.506;11.876;2023-07-31T06:53:11;19.40;65.80
14585;DHT22;7379;51.506;11.876;2023-07-31T06:55:38;19.40;65.90
14585;DHT22;7379;51.506;11.876;2023-07-31T06:58:05;19.40;66.00
14585;DHT22;7379;51.506;11.876;2023-07-31T07:00:31;19.40;65.90
14585;DHT22;7379;51.506;11.876;2023-07-31T07:02:59;19.40;65.90
14585;DHT22;7379;51.506;11.876;2023-07-31T07:05:25;19.40;65.90
14585;DHT22;7379;51.506;11.876;2023-07-31T07:07:52;19.40;65.90
14585;DHT22;7379;51.506;11.876;2023-07-31T07:10:20;19.40;65.90
14585;DHT22;7379;51.506;11.876;2023-07-31T07:12:47;19.40;65.90
14585;DHT22;7379;51.506;11.876;2023-07-31T07:15:14;19.40;66.00
14585;DHT22;7379;51.506;11.876;2023-07-31T07:17:41;19.40;65.90
14585;DHT22;7379;51.506;11.876;2023-07-31T07:20:08;19.40;65.90
14585;DHT22;7379;51.506;11.876;2023-07-31T07:22:35;19.40;65.90
14585;DHT22;7379;51.506;11.876;2023-07-31T07:25:02;19.40;66.00
14585;DHT22;7379;51.506;11.876;2023-07-31T07:27:30;19.40;66.00
14585;DHT22;7379;51.506;11.876;2023-07-31T07:29:57;19.40;65.90
14585;DHT22;7379;51.506;11.876;2023-07-31T07:32:24;19.40;65.90
14585;DHT22;7379;51.506;11.876;2023-07-31T07:34:50;19.40;65.90
14585;DHT22;7379;51.506;11.876;2023-07-31T07:37:17;19.40;65.90
14585;DHT22;7379;51.506;11.876;2023-07-31T07:39:44;19.40;65.90
14585;DHT22;7379;51.506;11.876;2023-07-31T07:42:11;19.40;65.90
14585;DHT22;7379;51.506;11.876;2023-07-31T07:44:39;19.40;66.10
14585;DHT22;7379;51.506;11.876;2023-07-31T07:47:06;19.40;65.90
14585;DHT22;7379;51.506;11.876;2023-07-31T07:49:33;19.40;65.90
14585;DHT22;7379;51.506;11.876;2023-07-31T07:52:00;19.40;65.80
14585;DHT22;7379;51.506;11.876;2023-07-31T07:54:27;19.40;65.90
14585;DHT22;7379;51.506;11.876;2023-07-31T07:56:53;19.40;65.80
14585;DHT22;7379;51.506;11.876;2023-07-31T07:59:20;19.40;65.90
14585;DHT22;7379;51.506;11.876;2023-07-31T08:01:48;19.40;65.90
14585;DHT22;7379;51.506;11.876;2023-07-31T08:04:15;19.40;65.90
14585;DHT22;7379;51.506;11.876;2023-07-31T08:06:42;19.40;65.80
14585;DHT22;7379;51.506;11.876;2023-07-31T08:09:08;19.40;65.80
14585;DHT22;7379;51.506;11.876;2023-07-31T08:11:35;19.40;65.80
14585;DHT22;7379;51.506;11.876;2023-07-31T08:14:02;19.40;65.90
14585;DHT22;7379;51.506;11.876;2023-07-31T08:16:29;19.40;65.80
14585;DHT22;7379;51.506;11.876;2023-07-31T08:18:57;19.40;65.80
14585;DHT22;7379;51.506;11.876;2023-07-31T08:21:23;19.40;65.90
14585;DHT22;7379;51.506;11.876;2023-07-31T08:23:50;19.40;65.80
14585;DHT22;7379;51.506;11.876;2023-07-31T08:26:17;19.40;65.80
14585;DHT22;7379;51.506;11.876;2023-07-31T08:28:44;19.40;65.80
14585;DHT22;7379;51.506;11.876;2023-07-31T08:31:11;19.40;65.90
14585;DHT22;7379;51.506;11.876;2023-07-31T08:33:38;19.50;66.10
14585;DHT22;7379;51.506;11.876;2023-07-31T08:36:07;19.50;66.10
14585;DHT22;7379;51.506;11.876;2023-07-31T08:38:33;19.50;66.00
14585;DHT22;7379;51.506;11.876;2023-07-31T08:41:00;19.50;66.00
14585;DHT22;7379;51.506;11.876;2023-07-31T08:43:30;19.50;66.10
14585;DHT22;7379;51.506;11.876;2023-07-31T08:45:56;19.50;66.10
14585;DHT22;7379;51.506;11.876;2023-07-31T08:48:24;19.50;66.20
14585;DHT22;7379;51.506;11.876;2023-07-31T08:50:51;19.50;66.20
14585;DHT22;7379;51.506;11.876;2023-07-31T08:53:20;19.50;66.10
14585;DHT22;7379;51.506;11.876;2023-07-31T08:55:47;19.50;66.20
14585;DHT22;7379;51.506;11.876;2023-07-31T08:58:15;19.50;66.30
14585;DHT22;7379;51.506;11.876;2023-07-31T09:00:42;19.50;66.20
14585;DHT22;7379;51.506;11.876;2023-07-31T09:03:13;19.50;66.30
14585;DHT22;7379;51.506;11.876;2023-07-31T09:05:42;19.50;66.40
14585;DHT22;7379;51.506;11.876;2023-07-31T09:08:10;19.50;66.50
14585;DHT22;7379;51.506;11.876;2023-07-31T09:10:41;19.50;66.50
14585;DHT22;7379;51.506;11.876;2023-07-31T09:13:08;19.50;66.50
14585;DHT22;7379;51.506;11.876;2023-07-31T09:15:36;19.50;66.50
14585;DHT22;7379;51.506;11.876;2023-07-31T09:18:04;19.50;66.60
14585;DHT22;7379;51.506;11.876;2023-07-31T09:20:31;19.50;66.60
14585;DHT22;7379;51.506;11.876;2023-07-31T09:23:05;19.50;66.60
14585;DHT22;7379;51.506;11.876;2023-07-31T09:25:32;19.50;66.60
14585;DHT22;7379;51.506;11.876;2023-07-31T09:28:03;19.50;66.60
14585;DHT22;7379;51.506;11.876;2023-07-31T09:30:32;19.50;66.60
14585;DHT22;7379;51.506;11.876;2023-07-31T09:33:09;19.50;66.60
14585;DHT22;7379;51.506;11.876;2023-07-31T09:35:36;19.50;66.60
14585;DHT22;7379;51.506;11.876;2023-07-31T09:38:07;19.50;66.60
14585;DHT22;7379;51.506;11.876;2023-07-31T09:40:36;19.40;66.50
14585;DHT22;7379;51.506;11.876;2023-07-31T09:43:05;19.50;66.60
14585;DHT22;7379;51.506;11.876;2023-07-31T09:45:34;19.50;66.70
14585;DHT22;7379;51.506;11.876;2023-07-31T09:48:01;19.50;66.80
14585;DHT22;7379;51.506;11.876;2023-07-31T09:50:29;19.50;66.90
14585;DHT22;7379;51.506;11.876;2023-07-31T09:52:56;19.50;67.20
14585;DHT22;7379;51.506;11.876;2023-07-31T09:55:24;19.50;67.50
14585;DHT22;7379;51.506;11.876;2023-07-31T09:57:51;19.50;67.30
14585;DHT22;7379;51.506;11.876;2023-07-31T10:00:19;19.60;67.50
14585;DHT22;7379;51.506;11.876;2023-07-31T10:02:48;19.60;67.40
14585;DHT22;7379;51.506;11.876;2023-07-31T10:05:15;19.60;67.30
14585;DHT22;7379;51.506;11.876;2023-07-31T10:07:45;19.60;67.20
14585;DHT22;7379;51.506;11.876;2023-07-31T10:10:16;19.60;67.20
14585;DHT22;7379;51.506;11.876;2023-07-31T10:12:44;19.60;67.20
14585;DHT22;7379;51.506;11.876;2023-07-31T10:15:12;19.60;67.20
14585;DHT22;7379;51.506;11.876;2023-07-31T10:17:40;19.60;67.10
14585;DHT22;7379;51.506;11.876;2023-07-31T10:20:09;19.70;67.20
14585;DHT22;7379;51.506;11.876;2023-07-31T10:22:36;19.70;67.10
14585;DHT22;7379;51.506;11.876;2023-07-31T10:25:04;19.70;67.00
14585;DHT22;7379;51.506;11.876;2023-07-31T10:27:35;19.80;67.00
14585;DHT22;7379;51.506;11.876;2023-07-31T10:30:04;19.80;67.10
14585;DHT22;7379;51.506;11.876;2023-07-31T10:32:32;19.80;66.90
14585;DHT22;7379;51.506;11.876;2023-07-31T10:35:02;19.80;66.80
14585;DHT22;7379;51.506;11.876;2023-07-31T10:37:35;19.90;66.80
14585;DHT22;7379;51.506;11.876;2023-07-31T10:40:04;19.90;66.90
14585;DHT22;7379;51.506;11.876;2023-07-31T10:42:32;19.90;66.80
14585;DHT22;7379;51.506;11.876;2023-07-31T10:45:02;20.00;66.90
14585;DHT22;7379;51.506;11.876;2023-07-31T10:47:29;20.00;66.80
14585;DHT22;7379;51.506;11.876;2023-07-31T10:50:18;20.00;66.90
14585;DHT22;7379;51.506;11.876;2023-07-31T10:52:49;20.00;67.00
14585;DHT22;7379;51.506;11.876;2023-07-31T10:55:24;20.00;66.80
14585;DHT22;7379;51.506;11.876;2023-07-31T10:57:51;20.00;66.90
14585;DHT22;7379;51.506;11.876;2023-07-31T11:00:20;20.00;66.80
14585;DHT22;7379;51.506;11.876;2023-07-31T11:03:00;20.00;66.70
14585;DHT22;7379;51.506;11.876;2023-07-31T11:05:48;20.10;66.90
14585;DHT22;7379;51.506;11.876;2023-07-31T11:08:17;20.00;66.80
14585;DHT22;7379;51.506;11.876;2023-07-31T11:10:45;20.00;66.70
14585;DHT22;7379;51.506;11.876;2023-07-31T11:13:12;20.00;66.60
14585;DHT22;7379;51.506;11.876;2023-07-31T11:15:39;20.10;66.80
14585;DHT22;7379;51.506;11.876;2023-07-31T11:18:06;20.10;66.70
14585;DHT22;7379;51.506;11.876;2023-07-31T11:20:35;20.10;66.80
14585;DHT22;7379;51.506;11.876;2023-07-31T11:23:05;20.10;66.80
14585;DHT22;7379;51.506;11.876;2023-07-31T11:25:33;20.00;66.80
14585;DHT22;7379;51.506;11.876;2023-07-31T11:28:03;20.00;66.90
14585;DHT22;7379;51.506;11.876;2023-07-31T11:30:30;20.00;67.00
14585;DHT22;7379;51.506;11.876;2023-07-31T11:32:57;20.00;67.10
14585;DHT22;7379;51.506;11.876;2023-07-31T11:35:23;20.10;67.20
14585;DHT22;7379;51.506;11.876;2023-07-31T11:37:50;20.10;67.00
14585;DHT22;7379;51.506;11.876;2023-07-31T11:40:18;20.10;66.90
14585;DHT22;7379;51.506;11.876;2023-07-31T11:42:45;20.10;66.80
14585;DHT22;7379;51.506;11.876;2023-07-31T11:45:12;20.10;66.70
14585;DHT22;7379;51.506;11.876;2023-07-31T11:47:38;20.10;66.70
14585;DHT22;7379;51.506;11.876;2023-07-31T11:50:07;20.10;66.80
14585;DHT22;7379;51.506;11.876;2023-07-31T11:52:38;20.10;66.80
14585;DHT22;7379;51.506;11.876;2023-07-31T11:55:07;20.10;66.80
14585;DHT22;7379;51.506;11.876;2023-07-31T11:57:37;20.10;66.80
14585;DHT22;7379;51.506;11.876;2023-07-31T12:00:06;20.20;66.90
14585;DHT22;7379;51.506;11.876;2023-07-31T12:02:34;20.10;66.70
14585;DHT22;7379;51.506;11.876;2023-07-31T12:05:01;20.20;66.50
14585;DHT22;7379;51.506;11.876;2023-07-31T12:07:43;20.20;66.40
14585;DHT22;7379;51.506;11.876;2023-07-31T12:10:10;20.30;66.20
14585;DHT22;7379;51.506;11.876;2023-07-31T12:12:38;20.40;66.10
14585;DHT22;7379;51.506;11.876;2023-07-31T12:15:14;20.40;66.20
14585;DHT22;7379;51.506;11.876;2023-07-31T12:17:41;20.50;65.90
14585;DHT22;7379;51.506;11.876;2023-07-31T12:20:09;20.60;65.40
14585;DHT22;7379;51.506;11.876;2023-07-31T12:22:36;20.70;65.30
14585;DHT22;7379;51.506;11.876;2023-07-31T12:25:03;20.80;64.90
14585;DHT22;7379;51.506;11.876;2023-07-31T12:27:33;20.90;64.90
14585;DHT22;7379;51.506;11.876;2023-07-31T12:30:01;20.90;64.60
14585;DHT22;7379;51.506;11.876;2023-07-31T12:32:30;20.90;64.40
14585;DHT22;7379;51.506;11.876;2023-07-31T12:34:59;20.90;64.20
14585;DHT22;7379;51.506;11.876;2023-07-31T12:37:26;20.90;64.10
14585;DHT22;7379;51.506;11.876;2023-07-31T12:39:53;20.90;64.10
14585;DHT22;7379;51.506;11.876;2023-07-31T12:42:20;20.90;64.00
14585;DHT22;7379;51.506;11.876;2023-07-31T12:44:47;20.90;64.00
14585;DHT22;7379;51.506;11.876;2023-07-31T12:47:15;20.80;64.10
14585;DHT22;7379;51.506;11.876;2023-07-31T12:49:41;20.80;64.20
14585;DHT22;7379;51.506;11.876;2023-07-31T12:52:08;20.80;64.20
14585;DHT22;7379;51.506;11.876;2023-07-31T12:54:35;20.80;64.30
14585;DHT22;7379;51.506;11.876;2023-07-31T12:57:02;20.80;64.30
14585;DHT22;7379;51.506;11.876;2023-07-31T12:59:28;20.80;64.20
14585;DHT22;7379;51.506;11.876;2023-07-31T13:01:55;20.80;63.80
14585;DHT22;7379;51.506;11.876;2023-07-31T13:04:23;20.80;63.70
14585;DHT22;7379;51.506;11.876;2023-07-31T13:06:50;20.80;63.60
14585;DHT22;7379;51.506;11.876;2023-07-31T13:09:17;20.80;63.60
14585;DHT22;7379;51.506;11.876;2023-07-31T13:11:43;20.80;64.40
14585;DHT22;7379;51.506;11.876;2023-07-31T13:14:10;20.80;63.60
14585;DHT22;7379;51.506;11.876;2023-07-31T13:16:37;20.80;63.60
14585;DHT22;7379;51.506;11.876;2023-07-31T13:19:04;20.80;63.90
14585;DHT22;7379;51.506;11.876;2023-07-31T13:21:32;20.80;63.60
14585;DHT22;7379;51.506;11.876;2023-07-31T13:24:01;20.80;63.50
14585;DHT22;7379;51.506;11.876;2023-07-31T13:26:28;20.80;63.60
14585;DHT22;7379;51.506;11.876;2023-07-31T13:28:54;20.80;63.60
14585;DHT22;7379;51.506;11.876;2023-07-31T13:31:21;20.80;63.80
14585;DHT22;7379;51.506;11.876;2023-07-31T13:33:49;20.80;63.80
14585;DHT22;7379;51.506;11.876;2023-07-31T13:36:15;20.80;63.80
14585;DHT22;7379;51.506;11.876;2023-07-31T13:38:43;20.90;63.90
14585;DHT22;7379;51.506;11.876;2023-07-31T13:41:10;20.90;63.80
14585;DHT22;7379;51.506;11.876;2023-07-31T13:43:37;20.90;63.70
14585;DHT22;7379;51.506;11.876;2023-07-31T13:46:04;20.90;63.70
14585;DHT22;7379;51.506;11.876;2023-07-31T13:48:33;20.90;63.60
14585;DHT22;7379;51.506;11.876;2023-07-31T13:50:59;21.00;63.50
14585;DHT22;7379;51.506;11.876;2023-07-31T13:53:26;21.10;63.20
14585;DHT22;7379;51.506;11.876;2023-07-31T13:55:54;21.30;62.70
14585;DHT22;7379;51.506;11.876;2023-07-31T13:58:21;21.50;62.30
14585;DHT22;7379;51.506;11.876;2023-07-31T14:00:48;21.80;61.10
14585;DHT22;7379;51.506;11.876;2023-07-31T14:03:14;21.80;60.80
14585;DHT22;7379;51.506;11.876;2023-07-31T14:05:41;21.80;60.80
14585;DHT22;7379;51.506;11.876;2023-07-31T14:08:08;21.70;60.90
14585;DHT22;7379;51.506;11.876;2023-07-31T14:10:34;21.60;61.10
14585;DHT22;7379;51.506;11.876;2023-07-31T14:13:02;21.50;61.20
14585;DHT22;7379;51.506;11.876;2023-07-31T14:15:29;21.50;61.50
14585;DHT22;7379;51.506;11.876;2023-07-31T14:17:57;21.40;61.50
14585;DHT22;7379;51.506;11.876;2023-07-31T14:20:24;21.30;61.50
14585;DHT22;7379;51.506;11.876;2023-07-31T14:22:50;21.30;61.60
14585;DHT22;7379;51.506;11.876;2023-07-31T14:25:17;21.20;61.70
14585;DHT22;7379;51.506;11.876;2023-07-31T14:27:44;21.20;61.90
14585;DHT22;7379;51.506;11.876;2023-07-31T14:30:12;21.20;62.00
14585;DHT22;7379;51.506;11.876;2023-07-31T14:32:39;21.20;62.00
14585;DHT22;7379;51.506;11.876;2023-07-31T14:35:06;21.20;62.20
14585;DHT22;7379;51.506;11.876;2023-07-31T14:37:37;21.10;62.10
14585;DHT22;7379;51.506;11.876;2023-07-31T14:40:05;21.10;62.30
14585;DHT22;7379;51.506;11.876;2023-07-31T14:42:32;21.10;62.40
14585;DHT22;7379;51.506;11.876;2023-07-31T14:44:58;21.10;62.40
14585;DHT22;7379;51.506;11.876;2023-07-31T14:47:27;21.10;62.50
14585;DHT22;7379;51.506;11.876;2023-07-31T14:49:53;21.10;62.50
14585;DHT22;7379;51.506;11.876;2023-07-31T14:52:20;21.10;62.50
14585;DHT22;7379;51.506;11.876;2023-07-31T14:54:47;21.10;62.50
14585;DHT22;7379;51.506;11.876;2023-07-31T14:57:14;21.10;62.60
14585;DHT22;7379;51.506;11.876;2023-07-31T14:59:40;21.10;62.60
14585;DHT22;7379;51.506;11.876;2023-07-31T15:02:08;21.10;62.40
14585;DHT22;7379;51.506;11.876;2023-07-31T15:04:37;21.20;62.50
14585;DHT22;7379;51.506;11.876;2023-07-31T15:07:04;21.20;62.50
14585;DHT22;7379;51.506;11.876;2023-07-31T15:09:31;21.20;62.40
14585;DHT22;7379;51.506;11.876;2023-07-31T15:11:57;21.20;62.40
14585;DHT22;7379;51.506;11.876;2023-07-31T15:14:25;21.20;62.50
14585;DHT22;7379;51.506;11.876;2023-07-31T15:16:52;21.20;62.50
14585;DHT22;7379;51.506;11.876;2023-07-31T15:19:19;21.20;62.60
14585;DHT22;7379;51.506;11.876;2023-07-31T15:21:47;21.10;62.50
14585;DHT22;7379;51.506;11.876;2023-07-31T15:24:14;21.10;62.60
14585;DHT22;7379;51.506;11.876;2023-07-31T15:26:41;21.10;62.60
14585;DHT22;7379;51.506;11.876;2023-07-31T15:29:08;21.10;62.70
14585;DHT22;7379;51.506;11.876;2023-07-31T15:31:36;21.10;62.70